sensor_id;sensor_type;location;lat;lon;timestamp;temperature;humidity
29093;DHT22;16167;48.768;14.984;2024-02-04T00:01:13;6.90;32.50
29093;DHT22;16167;48.768;14.984;2024-02-04T00:03:42;6.90;34.60
29093;DHT22;16167;48.768;14.984;2024-02-04T00:06:10;6.90;35.80
29093;DHT22;16167;48.768;14.984;2024-02-04T00:08:38;6.80;38.60
29093;DHT22;16167;48.768;14.984;2024-02-04T00:11:07;6.80;40.50
29093;DHT22;16167;48.768;14.984;2024-02-04T00:13:38;6.80;41.10
29093;DHT22;16167;48.768;14.984;2024-02-04T00:16:08;6.70;42.80
29093;DHT22;16167;48.768;14.984;2024-02-04T00:18:36;6.70;43.20
29093;DHT22;16167;48.768;14.984;2024-02-04T00:21:05;6.80;45.50
29093;DHT22;16167;48.768;14.984;2024-02-04T00:23:33;6.80;47.20
29093;DHT22;16167;48.768;14.984;2024-02-04T00:26:01;6.80;50.30
29093;DHT22;16167;48.768;14.984;2024-02-04T00:28:29;6.80;54.90
29093;DHT22;16167;48.768;14.984;2024-02-04T00:30:58;6.70;56.70
29093;DHT22;16167;48.768;14.984;2024-02-04T00:33:28;6.80;59.50
29093;DHT22;16167;48.768;14.984;2024-02-04T00:35:56;6.80;58.60
29093;DHT22;16167;48.768;14.984;2024-02-04T00:38:24;6.80;62.70
29093;DHT22;16167;48.768;14.984;2024-02-04T00:40:52;6.70;63.70
29093;DHT22;16167;48.768;14.984;2024-02-04T00:43:21;6.70;66.90
29093;DHT22;16167;48.768;14.984;2024-02-04T00:45:49;6.60;66.90
29093;DHT22;16167;48.768;14.984;2024-02-04T00:48:17;6.60;69.10
29093;DHT22;16167;48.768;14.984;2024-02-04T00:50:47;6.60;72.60
29093;DHT22;16167;48.768;14.984;2024-02-04T00:53:15;6.60;73.70
29093;DHT22;16167;48.768;14.984;2024-02-04T00:55:44;6.60;76.40
29093;DHT22;16167;48.768;14.984;2024-02-04T00:58:12;6.50;79.10
29093;DHT22;16167;48.768;14.984;2024-02-04T01:00:40;6.50;82.30
29093;DHT22;16167;48.768;14.984;2024-02-04T01:03:08;6.40;85.30
29093;DHT22;16167;48.768;14.984;2024-02-04T01:05:37;6.40;89.60
29093;DHT22;16167;48.768;14.984;2024-02-04T01:08:06;6.40;89.90
29093;DHT22;16167;48.768;14.984;2024-02-04T01:10:35;6.40;90.50
29093;DHT22;16167;48.768;14.984;2024-02-04T01:13:03;6.50;89.40
29093;DHT22;16167;48.768;14.984;2024-02-04T01:15:32;6.40;91.90
29093;DHT22;16167;48.768;14.984;2024-02-04T01:18:00;6.40;92.90
29093;DHT22;16167;48.768;14.984;2024-02-04T01:20:28;6.40;94.00
29093;DHT22;16167;48.768;14.984;2024-02-04T01:22:56;6.30;94.10
29093;DHT22;16167;48.768;14.984;2024-02-04T01:25:26;6.40;92.50
29093;DHT22;16167;48.768;14.984;2024-02-04T01:27:54;6.40;93.50
29093;DHT22;16167;48.768;14.984;2024-02-04T01:30:22;6.40;94.10
29093;DHT22;16167;48.768;14.984;2024-02-04T01:32:50;6.30;94.10
29093;DHT22;16167;48.768;14.984;2024-02-04T01:35:19;6.30;95.20
29093;DHT22;16167;48.768;14.984;2024-02-04T01:37:47;6.30;96.00
29093;DHT22;16167;48.768;14.984;2024-02-04T01:40:16;6.30;96.20
29093;DHT22;16167;48.768;14.984;2024-02-04T01:42:45;6.30;95.50
29093;DHT22;16167;48.768;14.984;2024-02-04T01:45:14;6.30;95.90
29093;DHT22;16167;48.768;14.984;2024-02-04T01:47:42;6.30;96.60
29093;DHT22;16167;48.768;14.984;2024-02-04T01:50:10;6.20;96.70
29093;DHT22;16167;48.768;14.984;2024-02-04T01:52:39;6.20;96.30
29093;DHT22;16167;48.768;14.984;2024-02-04T01:55:09;6.20;95.90
29093;DHT22;16167;48.768;14.984;2024-02-04T01:57:39;6.30;95.70
29093;DHT22;16167;48.768;14.984;2024-02-04T02:03:00;6.30;95.10
29093;DHT22;16167;48.768;14.984;2024-02-04T02:05:30;6.30;94.90
29093;DHT22;16167;48.768;14.984;2024-02-04T02:07:59;6.30;94.10
29093;DHT22;16167;48.768;14.984;2024-02-04T02:10:27;6.30;93.30
29093;DHT22;16167;48.768;14.984;2024-02-04T02:13:00;6.40;93.10
29093;DHT22;16167;48.768;14.984;2024-02-04T02:15:37;6.30;93.40
29093;DHT22;16167;48.768;14.984;2024-02-04T02:18:11;6.30;92.50
29093;DHT22;16167;48.768;14.984;2024-02-04T02:20:52;6.30;91.70
29093;DHT22;16167;48.768;14.984;2024-02-04T02:23:30;6.40;91.80
29093;DHT22;16167;48.768;14.984;2024-02-04T02:26:00;6.40;91.40
29093;DHT22;16167;48.768;14.984;2024-02-04T02:28:30;6.40;90.70
29093;DHT22;16167;48.768;14.984;2024-02-04T02:30:59;6.30;90.90
29093;DHT22;16167;48.768;14.984;2024-02-04T02:33:32;6.40;91.00
29093;DHT22;16167;48.768;14.984;2024-02-04T02:36:02;6.40;91.00
29093;DHT22;16167;48.768;14.984;2024-02-04T02:38:40;6.30;91.00
29093;DHT22;16167;48.768;14.984;2024-02-04T02:41:13;6.40;89.90
29093;DHT22;16167;48.768;14.984;2024-02-04T02:43:43;6.40;88.70
29093;DHT22;16167;48.768;14.984;2024-02-04T02:46:12;6.40;87.00
29093;DHT22;16167;48.768;14.984;2024-02-04T02:48:41;6.40;82.30
29093;DHT22;16167;48.768;14.984;2024-02-04T02:51:10;6.50;79.90
29093;DHT22;16167;48.768;14.984;2024-02-04T02:53:38;6.50;77.90
29093;DHT22;16167;48.768;14.984;2024-02-04T02:56:06;6.60;75.30
29093;DHT22;16167;48.768;14.984;2024-02-04T02:58:36;6.50;77.10
29093;DHT22;16167;48.768;14.984;2024-02-04T03:01:04;6.50;75.90
29093;DHT22;16167;48.768;14.984;2024-02-04T03:03:32;6.50;75.70
29093;DHT22;16167;48.768;14.984;2024-02-04T03:06:01;6.40;76.60
29093;DHT22;16167;48.768;14.984;2024-02-04T03:08:29;6.50;75.70
29093;DHT22;16167;48.768;14.984;2024-02-04T03:10:57;6.40;77.40
29093;DHT22;16167;48.768;14.984;2024-02-04T03:13:26;6.40;78.10
29093;DHT22;16167;48.768;14.984;2024-02-04T03:15:55;6.50;73.90
29093;DHT22;16167;48.768;14.984;2024-02-04T03:18:24;6.40;73.00
29093;DHT22;16167;48.768;14.984;2024-02-04T03:20:52;6.40;74.50
29093;DHT22;16167;48.768;14.984;2024-02-04T03:23:20;6.50;72.70
29093;DHT22;16167;48.768;14.984;2024-02-04T03:25:48;6.50;71.50
29093;DHT22;16167;48.768;14.984;2024-02-04T03:28:17;6.40;71.40
29093;DHT22;16167;48.768;14.984;2024-02-04T03:30:46;6.40;72.30
29093;DHT22;16167;48.768;14.984;2024-02-04T03:33:15;6.40;74.90
29093;DHT22;16167;48.768;14.984;2024-02-04T03:35:44;6.30;75.90
29093;DHT22;16167;48.768;14.984;2024-02-04T03:38:12;6.30;76.70
29093;DHT22;16167;48.768;14.984;2024-02-04T03:40:40;6.40;73.20
29093;DHT22;16167;48.768;14.984;2024-02-04T03:43:09;6.40;73.80
29093;DHT22;16167;48.768;14.984;2024-02-04T03:45:37;6.40;73.70
29093;DHT22;16167;48.768;14.984;2024-02-04T03:48:06;6.40;76.00
29093;DHT22;16167;48.768;14.984;2024-02-04T03:50:37;6.40;76.00
29093;DHT22;16167;48.768;14.984;2024-02-04T03:53:05;6.40;77.50
29093;DHT22;16167;48.768;14.984;2024-02-04T03:55:33;6.40;76.60
29093;DHT22;16167;48.768;14.984;2024-02-04T03:58:02;6.50;74.00
29093;DHT22;16167;48.768;14.984;2024-02-04T04:00:30;6.50;71.00
29093;DHT22;16167;48.768;14.984;2024-02-04T04:02:58;6.60;69.90
29093;DHT22;16167;48.768;14.984;2024-02-04T04:05:27;6.60;69.40
29093;DHT22;16167;48.768;14.984;2024-02-04T04:07:56;6.60;67.80
29093;DHT22;16167;48.768;14.984;2024-02-04T04:10:24;6.60;68.10
29093;DHT22;16167;48.768;14.984;2024-02-04T04:12:52;6.60;66.00
29093;DHT22;16167;48.768;14.984;2024-02-04T04:15:21;6.60;64.80
29093;DHT22;16167;48.768;14.984;2024-02-04T04:17:49;6.60;66.00
29093;DHT22;16167;48.768;14.984;2024-02-04T04:20:17;6.50;65.70
29093;DHT22;16167;48.768;14.984;2024-02-04T04:22:45;6.60;65.30
29093;DHT22;16167;48.768;14.984;2024-02-04T04:25:15;6.60;63.50
29093;DHT22;16167;48.768;14.984;2024-02-04T04:27:44;6.60;64.70
29093;DHT22;16167;48.768;14.984;2024-02-04T04:30:13;6.60;66.20
29093;DHT22;16167;48.768;14.984;2024-02-04T04:32:41;6.60;65.30
29093;DHT22;16167;48.768;14.984;2024-02-04T04:35:09;6.60;65.90
29093;DHT22;16167;48.768;14.984;2024-02-04T04:37:37;6.60;66.70
29093;DHT22;16167;48.768;14.984;2024-02-04T04:40:07;6.60;67.60
29093;DHT22;16167;48.768;14.984;2024-02-04T04:42:36;6.60;68.10
29093;DHT22;16167;48.768;14.984;2024-02-04T04:45:06;6.60;71.60
29093;DHT22;16167;48.768;14.984;2024-02-04T04:47:35;6.60;72.70
29093;DHT22;16167;48.768;14.984;2024-02-04T04:50:05;6.60;73.50
29093;DHT22;16167;48.768;14.984;2024-02-04T04:52:33;6.60;74.60
29093;DHT22;16167;48.768;14.984;2024-02-04T04:55:02;6.60;71.80
29093;DHT22;16167;48.768;14.984;2024-02-04T04:57:30;6.60;72.70
29093;DHT22;16167;48.768;14.984;2024-02-04T05:00:00;6.60;70.80
29093;DHT22;16167;48.768;14.984;2024-02-04T05:02:33;6.60;72.50
29093;DHT22;16167;48.768;14.984;2024-02-04T05:05:01;6.60;71.70
29093;DHT22;16167;48.768;14.984;2024-02-04T05:07:30;6.60;70.70
29093;DHT22;16167;48.768;14.984;2024-02-04T05:09:58;6.60;69.00
29093;DHT22;16167;48.768;14.984;2024-02-04T05:12:27;6.60;70.50
29093;DHT22;16167;48.768;14.984;2024-02-04T05:14:55;6.50;68.00
29093;DHT22;16167;48.768;14.984;2024-02-04T05:17:25;6.50;67.30
29093;DHT22;16167;48.768;14.984;2024-02-04T05:19:54;6.50;67.00
29093;DHT22;16167;48.768;14.984;2024-02-04T05:22:22;6.40;68.90
29093;DHT22;16167;48.768;14.984;2024-02-04T05:24:50;6.40;69.40
29093;DHT22;16167;48.768;14.984;2024-02-04T05:27:18;6.40;68.90
29093;DHT22;16167;48.768;14.984;2024-02-04T05:29:47;6.40;66.40
29093;DHT22;16167;48.768;14.984;2024-02-04T05:32:15;6.40;64.30
29093;DHT22;16167;48.768;14.984;2024-02-04T05:34:44;6.40;65.20
29093;DHT22;16167;48.768;14.984;2024-02-04T05:37:13;6.40;63.50
29093;DHT22;16167;48.768;14.984;2024-02-04T05:39:41;6.40;66.20
29093;DHT22;16167;48.768;14.984;2024-02-04T05:42:09;6.30;67.30
29093;DHT22;16167;48.768;14.984;2024-02-04T05:44:38;6.30;66.20
29093;DHT22;16167;48.768;14.984;2024-02-04T05:47:06;6.20;67.20
29093;DHT22;16167;48.768;14.984;2024-02-04T05:49:34;6.30;63.10
29093;DHT22;16167;48.768;14.984;2024-02-04T05:52:05;6.30;61.70
29093;DHT22;16167;48.768;14.984;2024-02-04T05:54:37;6.30;64.30
29093;DHT22;16167;48.768;14.984;2024-02-04T05:57:06;6.30;63.80
29093;DHT22;16167;48.768;14.984;2024-02-04T05:59:34;6.30;61.50
29093;DHT22;16167;48.768;14.984;2024-02-04T06:02:03;6.30;60.90
29093;DHT22;16167;48.768;14.984;2024-02-04T06:04:31;6.30;61.60
29093;DHT22;16167;48.768;14.984;2024-02-04T06:07:00;6.20;61.10
29093;DHT22;16167;48.768;14.984;2024-02-04T06:09:29;6.30;57.90
29093;DHT22;16167;48.768;14.984;2024-02-04T06:11:57;6.30;56.80
29093;DHT22;16167;48.768;14.984;2024-02-04T06:14:26;6.20;56.40
29093;DHT22;16167;48.768;14.984;2024-02-04T06:16:54;6.30;51.50
29093;DHT22;16167;48.768;14.984;2024-02-04T06:19:22;6.30;48.10
29093;DHT22;16167;48.768;14.984;2024-02-04T06:21:50;6.30;47.40
29093;DHT22;16167;48.768;14.984;2024-02-04T06:24:19;6.20;48.60
29093;DHT22;16167;48.768;14.984;2024-02-04T06:26:48;6.20;48.80
29093;DHT22;16167;48.768;14.984;2024-02-04T06:29:17;6.20;48.10
29093;DHT22;16167;48.768;14.984;2024-02-04T06:31:46;6.20;46.00
29093;DHT22;16167;48.768;14.984;2024-02-04T06:34:14;6.10;46.70
29093;DHT22;16167;48.768;14.984;2024-02-04T06:36:43;6.20;44.10
29093;DHT22;16167;48.768;14.984;2024-02-04T06:39:12;6.30;43.30
29093;DHT22;16167;48.768;14.984;2024-02-04T06:41:40;6.30;43.20
29093;DHT22;16167;48.768;14.984;2024-02-04T06:44:11;6.30;42.70
29093;DHT22;16167;48.768;14.984;2024-02-04T06:46:39;6.30;42.80
29093;DHT22;16167;48.768;14.984;2024-02-04T06:49:07;6.30;43.20
29093;DHT22;16167;48.768;14.984;2024-02-04T06:51:35;6.40;43.60
29093;DHT22;16167;48.768;14.984;2024-02-04T06:54:03;6.40;44.80
29093;DHT22;16167;48.768;14.984;2024-02-04T06:56:32;6.30;46.00
29093;DHT22;16167;48.768;14.984;2024-02-04T06:59:01;6.30;45.30
29093;DHT22;16167;48.768;14.984;2024-02-04T07:01:32;6.40;45.20
29093;DHT22;16167;48.768;14.984;2024-02-04T07:04:00;6.30;45.30
29093;DHT22;16167;48.768;14.984;2024-02-04T07:06:29;6.30;45.30
29093;DHT22;16167;48.768;14.984;2024-02-04T07:08:57;6.30;45.70
29093;DHT22;16167;48.768;14.984;2024-02-04T07:11:25;6.30;44.50
29093;DHT22;16167;48.768;14.984;2024-02-04T07:13:54;6.40;43.80
29093;DHT22;16167;48.768;14.984;2024-02-04T07:16:25;6.40;43.80
29093;DHT22;16167;48.768;14.984;2024-02-04T07:18:55;6.40;43.80
29093;DHT22;16167;48.768;14.984;2024-02-04T07:21:24;6.60;37.70
29093;DHT22;16167;48.768;14.984;2024-02-04T07:23:52;6.70;36.40
29093;DHT22;16167;48.768;14.984;2024-02-04T07:26:20;6.70;37.40
29093;DHT22;16167;48.768;14.984;2024-02-04T07:28:48;6.70;37.80
29093;DHT22;16167;48.768;14.984;2024-02-04T07:31:17;6.70;38.00
29093;DHT22;16167;48.768;14.984;2024-02-04T07:33:46;6.80;35.80
29093;DHT22;16167;48.768;14.984;2024-02-04T07:36:15;6.80;34.50
29093;DHT22;16167;48.768;14.984;2024-02-04T07:38:43;6.90;35.10
29093;DHT22;16167;48.768;14.984;2024-02-04T07:41:13;6.90;35.20
29093;DHT22;16167;48.768;14.984;2024-02-04T07:43:42;7.00;33.70
29093;DHT22;16167;48.768;14.984;2024-02-04T07:46:11;7.00;30.70
29093;DHT22;16167;48.768;14.984;2024-02-04T07:48:39;7.10;31.80
29093;DHT22;16167;48.768;14.984;2024-02-04T07:51:07;7.10;33.00
29093;DHT22;16167;48.768;14.984;2024-02-04T07:53:37;7.10;32.00
29093;DHT22;16167;48.768;14.984;2024-02-04T07:56:06;7.20;28.50
29093;DHT22;16167;48.768;14.984;2024-02-04T07:58:34;7.30;26.00
29093;DHT22;16167;48.768;14.984;2024-02-04T08:01:03;7.40;28.30
29093;DHT22;16167;48.768;14.984;2024-02-04T08:03:31;7.40;28.40
29093;DHT22;16167;48.768;14.984;2024-02-04T08:06:00;7.50;25.60
29093;DHT22;16167;48.768;14.984;2024-02-04T08:08:29;7.50;27.20
29093;DHT22;16167;48.768;14.984;2024-02-04T08:10:58;7.60;24.60
29093;DHT22;16167;48.768;14.984;2024-02-04T08:13:27;7.60;25.70
29093;DHT22;16167;48.768;14.984;2024-02-04T08:15:56;7.70;23.40
29093;DHT22;16167;48.768;14.984;2024-02-04T08:18:24;7.80;17.70
29093;DHT22;16167;48.768;14.984;2024-02-04T08:20:52;7.80;15.60
29093;DHT22;16167;48.768;14.984;2024-02-04T08:23:20;7.90;16.60
29093;DHT22;16167;48.768;14.984;2024-02-04T08:25:48;8.00;16.00
29093;DHT22;16167;48.768;14.984;2024-02-04T08:28:19;8.00;16.20
29093;DHT22;16167;48.768;14.984;2024-02-04T08:30:47;8.00;17.80
29093;DHT22;16167;48.768;14.984;2024-02-04T08:33:15;8.00;16.00
29093;DHT22;16167;48.768;14.984;2024-02-04T08:35:44;8.00;18.20
29093;DHT22;16167;48.768;14.984;2024-02-04T08:38:13;8.10;13.00
29093;DHT22;16167;48.768;14.984;2024-02-04T08:40:41;8.10;15.10
29093;DHT22;16167;48.768;14.984;2024-02-04T08:43:09;8.20;12.90
29093;DHT22;16167;48.768;14.984;2024-02-04T08:45:39;8.20;14.20
29093;DHT22;16167;48.768;14.984;2024-02-04T08:48:07;8.40;10.80
29093;DHT22;16167;48.768;14.984;2024-02-04T08:50:35;8.40;15.10
29093;DHT22;16167;48.768;14.984;2024-02-04T08:53:04;8.60;16.40
29093;DHT22;16167;48.768;14.984;2024-02-04T08:55:32;8.70;15.50
29093;DHT22;16167;48.768;14.984;2024-02-04T08:57:59;8.80;22.40
29093;DHT22;16167;48.768;14.984;2024-02-04T09:00:27;8.90;44.00
29093;DHT22;16167;48.768;14.984;2024-02-04T09:02:57;9.00;36.10
29093;DHT22;16167;48.768;14.984;2024-02-04T09:05:25;9.10;30.00
29093;DHT22;16167;48.768;14.984;2024-02-04T09:07:53;9.20;31.40
29093;DHT22;16167;48.768;14.984;2024-02-04T09:10:22;9.30;30.10
29093;DHT22;16167;48.768;14.984;2024-02-04T09:12:51;9.30;36.70
29093;DHT22;16167;48.768;14.984;2024-02-04T09:15:19;9.40;28.90
29093;DHT22;16167;48.768;14.984;2024-02-04T09:17:47;9.40;39.30
29093;DHT22;16167;48.768;14.984;2024-02-04T09:20:17;9.40;43.90
29093;DHT22;16167;48.768;14.984;2024-02-04T09:22:45;9.40;38.10
29093;DHT22;16167;48.768;14.984;2024-02-04T09:25:14;9.50;49.00
29093;DHT22;16167;48.768;14.984;2024-02-04T09:27:42;9.60;48.90
29093;DHT22;16167;48.768;14.984;2024-02-04T09:30:12;9.50;53.60
29093;DHT22;16167;48.768;14.984;2024-02-04T09:32:40;9.60;52.00
29093;DHT22;16167;48.768;14.984;2024-02-04T09:35:09;9.60;49.50
29093;DHT22;16167;48.768;14.984;2024-02-04T09:37:39;9.50;59.10
29093;DHT22;16167;48.768;14.984;2024-02-04T09:40:09;9.40;53.90
29093;DHT22;16167;48.768;14.984;2024-02-04T09:42:37;9.60;52.40
29093;DHT22;16167;48.768;14.984;2024-02-04T09:45:06;9.60;41.80
29093;DHT22;16167;48.768;14.984;2024-02-04T09:47:35;9.70;47.80
29093;DHT22;16167;48.768;14.984;2024-02-04T09:50:04;9.80;47.30
29093;DHT22;16167;48.768;14.984;2024-02-04T09:52:33;10.10;51.70
29093;DHT22;16167;48.768;14.984;2024-02-04T09:55:07;10.20;52.50
29093;DHT22;16167;48.768;14.984;2024-02-04T09:57:37;10.40;46.70
29093;DHT22;16167;48.768;14.984;2024-02-04T10:00:07;10.60;50.20
29093;DHT22;16167;48.768;14.984;2024-02-04T10:02:37;10.80;49.10
29093;DHT22;16167;48.768;14.984;2024-02-04T10:05:06;10.90;57.90
29093;DHT22;16167;48.768;14.984;2024-02-04T10:07:37;10.80;58.20
29093;DHT22;16167;48.768;14.984;2024-02-04T10:10:08;10.70;48.80
29093;DHT22;16167;48.768;14.984;2024-02-04T10:12:38;10.70;54.60
29093;DHT22;16167;48.768;14.984;2024-02-04T10:15:09;10.70;53.70
29093;DHT22;16167;48.768;14.984;2024-02-04T10:17:38;10.60;60.50
29093;DHT22;16167;48.768;14.984;2024-02-04T10:20:10;10.30;61.20
29093;DHT22;16167;48.768;14.984;2024-02-04T10:22:41;10.10;60.30
29093;DHT22;16167;48.768;14.984;2024-02-04T10:25:11;10.20;47.70
29093;DHT22;16167;48.768;14.984;2024-02-04T10:27:41;10.20;57.40
29093;DHT22;16167;48.768;14.984;2024-02-04T10:30:10;10.10;59.40
29093;DHT22;16167;48.768;14.984;2024-02-04T10:32:39;10.10;53.40
29093;DHT22;16167;48.768;14.984;2024-02-04T10:35:08;10.00;51.40
29093;DHT22;16167;48.768;14.984;2024-02-04T10:37:36;10.00;51.90
29093;DHT22;16167;48.768;14.984;2024-02-04T10:40:06;9.90;51.90
29093;DHT22;16167;48.768;14.984;2024-02-04T10:42:36;10.00;50.60
29093;DHT22;16167;48.768;14.984;2024-02-04T10:45:08;9.80;51.50
29093;DHT22;16167;48.768;14.984;2024-02-04T10:47:38;9.90;52.10
29093;DHT22;16167;48.768;14.984;2024-02-04T10:50:07;10.00;57.10
29093;DHT22;16167;48.768;14.984;2024-02-04T10:52:37;10.10;55.10
29093;DHT22;16167;48.768;14.984;2024-02-04T10:55:08;10.20;55.90
29093;DHT22;16167;48.768;14.984;2024-02-04T10:57:39;10.20;56.90
29093;DHT22;16167;48.768;14.984;2024-02-04T11:00:08;10.20;59.30
29093;DHT22;16167;48.768;14.984;2024-02-04T11:02:39;10.10;59.10
29093;DHT22;16167;48.768;14.984;2024-02-04T11:05:10;10.10;61.40
29093;DHT22;16167;48.768;14.984;2024-02-04T11:07:38;10.10;56.90
29093;DHT22;16167;48.768;14.984;2024-02-04T11:10:07;10.10;58.10
29093;DHT22;16167;48.768;14.984;2024-02-04T11:12:36;10.20;60.40
29093;DHT22;16167;48.768;14.984;2024-02-04T11:15:11;10.20;62.10
29093;DHT22;16167;48.768;14.984;2024-02-04T11:21:21;10.30;71.00
29093;DHT22;16167;48.768;14.984;2024-02-04T11:24:05;10.50;69.70
29093;DHT22;16167;48.768;14.984;2024-02-04T11:26:36;10.40;69.60
29093;DHT22;16167;48.768;14.984;2024-02-04T11:29:08;10.40;64.50
29093;DHT22;16167;48.768;14.984;2024-02-04T11:31:40;10.40;69.30
29093;DHT22;16167;48.768;14.984;2024-02-04T11:34:08;10.30;69.70
29093;DHT22;16167;48.768;14.984;2024-02-04T11:36:38;10.20;69.50
29093;DHT22;16167;48.768;14.984;2024-02-04T11:39:13;10.00;67.60
29093;DHT22;16167;48.768;14.984;2024-02-04T11:41:46;9.90;58.20
29093;DHT22;16167;48.768;14.984;2024-02-04T11:44:20;9.70;62.20
29093;DHT22;16167;48.768;14.984;2024-02-04T11:46:50;9.70;78.20
29093;DHT22;16167;48.768;14.984;2024-02-04T11:49:23;9.60;53.70
29093;DHT22;16167;48.768;14.984;2024-02-04T11:51:52;9.50;49.20
29093;DHT22;16167;48.768;14.984;2024-02-04T11:54:21;9.60;55.70
29093;DHT22;16167;48.768;14.984;2024-02-04T11:56:50;9.50;61.30
29093;DHT22;16167;48.768;14.984;2024-02-04T11:59:21;9.30;55.50
29093;DHT22;16167;48.768;14.984;2024-02-04T12:01:54;9.40;55.10
29093;DHT22;16167;48.768;14.984;2024-02-04T12:04:23;9.50;47.30
29093;DHT22;16167;48.768;14.984;2024-02-04T12:06:52;9.40;52.40
29093;DHT22;16167;48.768;14.984;2024-02-04T12:09:20;9.20;51.30
29093;DHT22;16167;48.768;14.984;2024-02-04T12:11:49;9.10;26.90
29093;DHT22;16167;48.768;14.984;2024-02-04T12:14:18;9.20;32.40
29093;DHT22;16167;48.768;14.984;2024-02-04T12:16:47;9.20;12.60
29093;DHT22;16167;48.768;14.984;2024-02-04T12:19:16;9.20;14.90
29093;DHT22;16167;48.768;14.984;2024-02-04T12:21:45;9.20;13.70
29093;DHT22;16167;48.768;14.984;2024-02-04T12:24:13;9.20;10.90
29093;DHT22;16167;48.768;14.984;2024-02-04T12:26:42;9.10;21.30
29093;DHT22;16167;48.768;14.984;2024-02-04T12:29:13;9.10;8.00
29093;DHT22;16167;48.768;14.984;2024-02-04T12:31:41;9.00;4.50
29093;DHT22;16167;48.768;14.984;2024-02-04T12:34:09;9.00;3.80
29093;DHT22;16167;48.768;14.984;2024-02-04T12:36:40;9.00;4.80
29093;DHT22;16167;48.768;14.984;2024-02-04T12:39:13;8.90;5.70
29093;DHT22;16167;48.768;14.984;2024-02-04T12:41:41;9.00;1.70
29093;DHT22;16167;48.768;14.984;2024-02-04T12:44:09;9.00;1.00
29093;DHT22;16167;48.768;14.984;2024-02-04T12:46:37;8.90;1.00
29093;DHT22;16167;48.768;14.984;2024-02-04T12:49:06;8.90;1.00
29093;DHT22;16167;48.768;14.984;2024-02-04T12:51:34;9.00;1.00
29093;DHT22;16167;48.768;14.984;2024-02-04T12:54:07;8.90;5.90
29093;DHT22;16167;48.768;14.984;2024-02-04T12:56:44;8.90;1.00
29093;DHT22;16167;48.768;14.984;2024-02-04T12:59:23;8.90;3.00
29093;DHT22;16167;48.768;14.984;2024-02-04T13:01:53;8.90;3.20
29093;DHT22;16167;48.768;14.984;2024-02-04T13:04:22;8.90;13.60
29093;DHT22;16167;48.768;14.984;2024-02-04T13:06:50;8.90;14.60
29093;DHT22;16167;48.768;14.984;2024-02-04T13:09:20;8.90;12.00
29093;DHT22;16167;48.768;14.984;2024-02-04T13:11:50;8.90;10.90
29093;DHT22;16167;48.768;14.984;2024-02-04T13:14:18;8.90;7.30
29093;DHT22;16167;48.768;14.984;2024-02-04T13:16:49;8.90;4.80
29093;DHT22;16167;48.768;14.984;2024-02-04T13:19:17;8.80;4.00
29093;DHT22;16167;48.768;14.984;2024-02-04T13:21:46;8.80;3.20
29093;DHT22;16167;48.768;14.984;2024-02-04T13:24:14;8.90;3.60
29093;DHT22;16167;48.768;14.984;2024-02-04T13:26:44;8.90;4.90
29093;DHT22;16167;48.768;14.984;2024-02-04T13:29:12;8.90;4.70
29093;DHT22;16167;48.768;14.984;2024-02-04T13:31:40;8.90;6.20
29093;DHT22;16167;48.768;14.984;2024-02-04T13:34:09;8.90;4.80
29093;DHT22;16167;48.768;14.984;2024-02-04T13:36:37;8.80;3.60
29093;DHT22;16167;48.768;14.984;2024-02-04T13:39:06;8.80;4.90
29093;DHT22;16167;48.768;14.984;2024-02-04T13:41:34;8.90;4.00
29093;DHT22;16167;48.768;14.984;2024-02-04T13:44:04;8.90;5.20
29093;DHT22;16167;48.768;14.984;2024-02-04T13:46:35;8.80;4.00
29093;DHT22;16167;48.768;14.984;2024-02-04T13:49:03;8.80;3.50
29093;DHT22;16167;48.768;14.984;2024-02-04T13:51:31;8.80;5.40
29093;DHT22;16167;48.768;14.984;2024-02-04T13:54:10;8.70;4.40
29093;DHT22;16167;48.768;14.984;2024-02-04T13:56:43;8.70;1.30
29093;DHT22;16167;48.768;14.984;2024-02-04T13:59:12;8.70;2.90
29093;DHT22;16167;48.768;14.984;2024-02-04T14:01:40;8.70;3.30
29093;DHT22;16167;48.768;14.984;2024-02-04T14:04:09;8.70;3.00
29093;DHT22;16167;48.768;14.984;2024-02-04T14:06:37;8.70;2.60
29093;DHT22;16167;48.768;14.984;2024-02-04T14:09:06;8.70;3.90
29093;DHT22;16167;48.768;14.984;2024-02-04T14:11:34;8.60;1.00
29093;DHT22;16167;48.768;14.984;2024-02-04T14:14:02;8.70;1.30
29093;DHT22;16167;48.768;14.984;2024-02-04T14:16:32;8.70;1.40
29093;DHT22;16167;48.768;14.984;2024-02-04T14:19:00;8.70;2.30
29093;DHT22;16167;48.768;14.984;2024-02-04T14:21:29;8.70;1.60
29093;DHT22;16167;48.768;14.984;2024-02-04T14:23:57;8.70;1.90
29093;DHT22;16167;48.768;14.984;2024-02-04T14:26:25;8.70;4.80
29093;DHT22;16167;48.768;14.984;2024-02-04T14:28:54;8.70;2.40
29093;DHT22;16167;48.768;14.984;2024-02-04T14:31:22;8.70;2.80
29093;DHT22;16167;48.768;14.984;2024-02-04T14:33:52;8.70;1.50
29093;DHT22;16167;48.768;14.984;2024-02-04T14:36:20;8.60;1.10
29093;DHT22;16167;48.768;14.984;2024-02-04T14:38:48;8.60;2.10
29093;DHT22;16167;48.768;14.984;2024-02-04T14:41:17;8.70;1.30
29093;DHT22;16167;48.768;14.984;2024-02-04T14:43:45;8.70;1.30
29093;DHT22;16167;48.768;14.984;2024-02-04T14:46:13;8.60;1.00
29093;DHT22;16167;48.768;14.984;2024-02-04T14:48:41;8.60;1.00
29093;DHT22;16167;48.768;14.984;2024-02-04T14:51:11;8.60;1.30
29093;DHT22;16167;48.768;14.984;2024-02-04T14:53:39;8.60;1.40
29093;DHT22;16167;48.768;14.984;2024-02-04T14:56:07;8.50;3.10
29093;DHT22;16167;48.768;14.984;2024-02-04T14:58:36;8.50;3.20
29093;DHT22;16167;48.768;14.984;2024-02-04T15:01:04;8.50;3.40
29093;DHT22;16167;48.768;14.984;2024-02-04T15:03:33;8.40;5.30
29093;DHT22;16167;48.768;14.984;2024-02-04T15:06:02;8.50;4.20
29093;DHT22;16167;48.768;14.984;2024-02-04T15:08:32;8.50;5.50
29093;DHT22;16167;48.768;14.984;2024-02-04T15:11:01;8.40;6.80
29093;DHT22;16167;48.768;14.984;2024-02-04T15:13:30;8.40;6.00
29093;DHT22;16167;48.768;14.984;2024-02-04T15:16:01;8.40;5.60
29093;DHT22;16167;48.768;14.984;2024-02-04T15:18:29;8.40;6.60
29093;DHT22;16167;48.768;14.984;2024-02-04T15:20:59;8.50;7.00
29093;DHT22;16167;48.768;14.984;2024-02-04T15:23:49;8.40;7.50
29093;DHT22;16167;48.768;14.984;2024-02-04T15:26:17;8.40;7.70
29093;DHT22;16167;48.768;14.984;2024-02-04T15:28:48;8.30;8.50
29093;DHT22;16167;48.768;14.984;2024-02-04T15:31:17;8.30;8.50
29093;DHT22;16167;48.768;14.984;2024-02-04T15:33:46;8.30;8.40
29093;DHT22;16167;48.768;14.984;2024-02-04T15:36:14;8.30;8.70
29093;DHT22;16167;48.768;14.984;2024-02-04T15:38:43;8.20;9.00
29093;DHT22;16167;48.768;14.984;2024-02-04T15:41:12;8.10;9.40
29093;DHT22;16167;48.768;14.984;2024-02-04T15:43:40;8.30;6.30
29093;DHT22;16167;48.768;14.984;2024-02-04T15:46:09;8.30;5.70
29093;DHT22;16167;48.768;14.984;2024-02-04T15:48:38;8.30;6.30
29093;DHT22;16167;48.768;14.984;2024-02-04T15:51:07;8.20;6.60